createdAt,value
2023-01-15T00:02:07.222Z,0.50
2023-01-15T00:04:34.023Z,0.40
2023-01-15T00:07:00.783Z,0.38
2023-01-15T00:09:27.526Z,0.50
2023-01-15T00:11:55.151Z,0.43
2023-01-15T00:14:21.894Z,0.52
2023-01-15T00:16:52.405Z,0.40
2023-01-15T00:19:19.253Z,0.32
2023-01-15T00:21:45.947Z,0.47
2023-01-15T00:24:31.037Z,0.40
2023-01-15T00:27:16.347Z,0.50
2023-01-15T00:29:43.040Z,0.30
2023-01-15T00:32:09.766Z,0.40
2023-01-15T00:34:36.565Z,0.52
2023-01-15T00:37:03.300Z,0.52
2023-01-15T00:39:30.165Z,0.60
2023-01-15T00:41:57.089Z,0.45
2023-01-15T00:44:23.796Z,0.50
2023-01-15T00:46:50.500Z,0.50
2023-01-15T00:49:17.487Z,0.50
2023-01-15T00:51:44.184Z,0.40
2023-01-15T00:54:13.924Z,0.60
2023-01-15T00:56:40.560Z,0.40
2023-01-15T00:59:07.267Z,0.50
2023-01-15T01:01:34.377Z,0.52
2023-01-15T01:04:01.274Z,0.50
2023-01-15T01:06:28.112Z,0.60
2023-01-15T01:08:55.316Z,0.50
2023-01-15T01:11:26.345Z,0.55
2023-01-15T01:13:54.806Z,0.50
2023-01-15T01:16:26.685Z,0.60
2023-01-15T01:18:54.710Z,0.50
2023-01-15T01:21:21.871Z,0.60
2023-01-15T01:23:48.784Z,0.73
2023-01-15T01:26:15.940Z,0.70
2023-01-15T01:28:42.788Z,0.60
2023-01-15T01:31:09.887Z,0.60
2023-01-15T01:33:36.771Z,0.70
2023-01-15T01:36:03.629Z,0.60
2023-01-15T01:38:30.495Z,0.60
2023-01-15T01:40:57.186Z,0.68
2023-01-15T01:43:29.813Z,0.80
2023-01-15T01:45:57.922Z,0.80
2023-01-15T01:48:30.496Z,0.70
2023-01-15T01:51:00.062Z,0.80
2023-01-15T01:53:30.473Z,0.55
2023-01-15T01:55:58.700Z,0.63
2023-01-15T01:58:30.445Z,0.60
2023-01-15T02:00:57.570Z,0.70
2023-01-15T02:03:30.418Z,0.60
2023-01-15T02:06:00.229Z,0.60
2023-01-15T02:08:27.329Z,0.60
2023-01-15T02:10:56.003Z,0.68
2023-01-15T02:13:35.117Z,0.73
2023-01-15T02:16:07.540Z,0.60
2023-01-15T02:18:45.457Z,0.75
2023-01-15T02:21:27.849Z,0.73
2023-01-15T02:24:10.897Z,0.70
2023-01-15T02:27:02.384Z,0.77
2023-01-15T02:30:08.117Z,0.60
2023-01-15T02:32:51.185Z,0.68
2023-01-15T02:35:48.267Z,0.60
2023-01-15T02:38:22.853Z,0.68
2023-01-15T02:40:53.216Z,0.80
2023-01-15T02:43:21.202Z,0.70
2023-01-15T02:45:50.464Z,0.60
2023-01-15T02:48:20.581Z,0.77
2023-01-15T02:50:53.938Z,0.73
2023-01-15T02:53:25.889Z,1.10
2023-01-15T02:55:56.374Z,0.80
2023-01-15T02:58:30.375Z,0.90
2023-01-15T03:01:00.385Z,0.77
2023-01-15T03:04:00.824Z,0.90
2023-01-15T03:06:41.298Z,0.80
2023-01-15T03:09:09.306Z,0.80
2023-01-15T03:11:42.809Z,0.80
2023-01-15T03:14:15.435Z,0.80
2023-01-15T03:17:08.403Z,0.80
2023-01-15T03:19:56.409Z,0.82
2023-01-15T03:22:34.295Z,0.90
2023-01-15T03:25:08.420Z,0.60
2023-01-15T03:27:34.991Z,0.75
2023-01-15T03:30:12.652Z,0.68
2023-01-15T03:32:39.393Z,0.50
2023-01-15T03:35:10.630Z,0.40
2023-01-15T03:37:37.303Z,0.50
2023-01-15T03:40:04.502Z,0.50
2023-01-15T03:42:49.772Z,0.38
2023-01-15T03:45:29.866Z,0.35
2023-01-15T03:48:12.032Z,0.50
2023-01-15T03:50:47.216Z,0.38
2023-01-15T03:53:22.787Z,0.35
2023-01-15T03:56:01.620Z,0.40
2023-01-15T03:58:35.236Z,0.25
2023-01-15T04:01:03.994Z,0.30
2023-01-15T04:03:32.617Z,0.30
2023-01-15T04:06:01.195Z,0.32
2023-01-15T04:08:31.412Z,0.35
2023-01-15T04:11:00.431Z,0.20
2023-01-15T04:13:30.862Z,0.30
2023-01-15T04:15:58.327Z,0.40
2023-01-15T04:18:25.077Z,0.40
2023-01-15T04:20:51.758Z,0.38
2023-01-15T04:23:18.412Z,0.40
2023-01-15T04:25:45.017Z,0.30
2023-01-15T04:28:13.004Z,0.28
2023-01-15T04:30:39.779Z,0.40
2023-01-15T04:33:06.326Z,0.32
2023-01-15T04:35:32.845Z,0.30
2023-01-15T04:37:59.788Z,0.40
2023-01-15T04:40:45.337Z,0.30
2023-01-15T04:43:31.869Z,0.40
2023-01-15T04:45:59.522Z,0.30
2023-01-15T04:48:26.643Z,0.35
2023-01-15T04:50:53.291Z,0.30
2023-01-15T04:53:19.837Z,0.25
2023-01-15T04:55:46.455Z,0.30
2023-01-15T04:58:12.996Z,0.20
2023-01-15T05:00:40.717Z,0.40
2023-01-15T05:03:07.292Z,0.20
2023-01-15T05:05:33.886Z,0.20
2023-01-15T05:08:00.455Z,0.20
2023-01-15T05:10:27.040Z,0.30
2023-01-15T05:12:53.583Z,0.20
2023-01-15T05:15:20.142Z,0.20
2023-01-15T05:17:46.797Z,0.20
2023-01-15T05:20:14.939Z,0.38
2023-01-15T05:22:41.585Z,0.20
2023-01-15T05:25:08.450Z,0.20
2023-01-15T05:27:34.962Z,0.20
2023-01-15T05:30:01.698Z,0.20
2023-01-15T05:32:29.992Z,0.20
2023-01-15T05:34:56.531Z,0.25
2023-01-15T05:37:23.068Z,0.20
2023-01-15T05:39:49.604Z,0.25
2023-01-15T05:42:16.157Z,0.20
2023-01-15T05:44:42.669Z,0.20
2023-01-15T05:47:10.097Z,0.20
2023-01-15T05:49:36.660Z,0.28
2023-01-15T05:52:03.253Z,0.50
2023-01-15T05:54:32.744Z,0.20
2023-01-15T05:56:59.802Z,0.13
2023-01-15T05:59:28.500Z,0.20
2023-01-15T06:01:55.837Z,0.22
2023-01-15T06:04:23.130Z,0.30
2023-01-15T06:06:51.379Z,0.30
2023-01-15T06:09:19.052Z,0.20
2023-01-15T06:11:46.076Z,0.30
2023-01-15T06:14:12.839Z,0.20
2023-01-15T06:16:41.477Z,0.20
2023-01-15T06:19:09.755Z,0.28
2023-01-15T06:21:36.632Z,0.30
2023-01-15T06:24:03.803Z,0.20
2023-01-15T06:26:30.444Z,0.22
2023-01-15T06:28:57.411Z,0.40
2023-01-15T06:31:24.355Z,0.10
2023-01-15T06:33:51.197Z,0.20
2023-01-15T06:36:21.706Z,0.30
2023-01-15T06:38:49.044Z,0.20
2023-01-15T06:41:36.826Z,0.20
2023-01-15T06:44:22.525Z,0.20
2023-01-15T06:47:09.381Z,0.20
2023-01-15T06:49:37.285Z,0.20
2023-01-15T06:52:04.955Z,0.20
2023-01-15T06:54:32.423Z,0.20
2023-01-15T06:56:58.992Z,0.20
2023-01-15T06:59:25.638Z,0.25
2023-01-15T07:01:52.406Z,0.30
2023-01-15T07:04:19.092Z,0.20
2023-01-15T07:06:45.740Z,0.20
2023-01-15T07:09:12.800Z,0.20
2023-01-15T07:11:49.470Z,0.30
2023-01-15T07:14:24.062Z,0.30
2023-01-15T07:16:51.230Z,0.10
2023-01-15T07:19:18.897Z,0.20
2023-01-15T07:21:45.747Z,0.40
2023-01-15T07:24:13.363Z,0.20
2023-01-15T07:26:40.038Z,0.20
2023-01-15T07:29:06.714Z,0.30
2023-01-15T07:31:33.405Z,0.20
2023-01-15T07:34:00.169Z,0.20
2023-01-15T07:36:26.816Z,0.30
2023-01-15T07:38:53.411Z,0.30
2023-01-15T07:41:38.504Z,0.20
2023-01-15T07:44:23.940Z,0.28
2023-01-15T07:47:08.976Z,0.20
2023-01-15T07:49:48.550Z,0.43
2023-01-15T07:52:16.568Z,0.20
2023-01-15T07:54:43.998Z,0.30
2023-01-15T07:57:12.040Z,0.22
2023-01-15T07:59:41.957Z,0.15
2023-01-15T08:02:08.690Z,0.25
2023-01-15T08:04:35.429Z,0.20
2023-01-15T08:07:03.358Z,0.28
2023-01-15T08:09:30.365Z,0.40
2023-01-15T08:12:18.594Z,0.40
2023-01-15T08:15:04.648Z,0.30
2023-01-15T08:17:34.894Z,0.30
2023-01-15T08:20:06.252Z,0.20
2023-01-15T08:22:32.991Z,0.20
2023-01-15T08:24:59.673Z,0.30
2023-01-15T08:27:26.666Z,0.20
2023-01-15T08:29:53.713Z,0.20
2023-01-15T08:32:20.403Z,0.30
2023-01-15T08:34:46.911Z,0.30
2023-01-15T08:37:13.643Z,0.30
2023-01-15T08:39:40.180Z,0.30
2023-01-15T08:42:07.340Z,0.30
2023-01-15T08:44:34.204Z,0.30
2023-01-15T08:47:00.794Z,0.28
2023-01-15T08:49:27.482Z,0.22
2023-01-15T08:51:54.080Z,0.40
2023-01-15T08:54:22.330Z,0.38
2023-01-15T08:56:49.981Z,0.30
2023-01-15T08:59:19.712Z,0.30
2023-01-15T09:01:46.715Z,0.30
2023-01-15T09:04:18.103Z,0.40
2023-01-15T09:06:46.729Z,0.32
2023-01-15T09:09:13.829Z,0.40
2023-01-15T09:11:42.521Z,0.30
2023-01-15T09:14:55.567Z,0.38
2023-01-15T09:16:57.875Z,0.30
2023-01-15T09:19:24.534Z,0.35
2023-01-15T09:21:51.047Z,0.38
2023-01-15T09:24:17.611Z,0.30
2023-01-15T09:26:44.148Z,0.20
2023-01-15T09:29:11.205Z,0.40
2023-01-15T09:31:37.795Z,0.32
2023-01-15T09:34:04.742Z,1.20
2023-01-15T09:36:33.868Z,1.40
2023-01-15T09:39:02.327Z,0.50
2023-01-15T09:42:05.366Z,0.30
2023-01-15T09:44:49.984Z,0.30
2023-01-15T09:47:47.048Z,0.22
2023-01-15T09:50:49.386Z,0.25
2023-01-15T09:53:28.107Z,0.40
2023-01-15T09:55:54.993Z,0.30
2023-01-15T09:58:30.618Z,0.40
2023-01-15T10:00:57.300Z,0.30
2023-01-15T10:03:42.742Z,0.63
2023-01-15T10:06:09.467Z,0.30
2023-01-15T10:08:42.007Z,0.30
2023-01-15T10:11:14.724Z,0.40
2023-01-15T10:13:47.668Z,0.20
2023-01-15T10:16:20.796Z,0.68
2023-01-15T10:18:47.507Z,0.60
2023-01-15T10:21:53.317Z,0.45
2023-01-15T10:24:19.839Z,0.40
2023-01-15T10:27:17.159Z,0.20
2023-01-15T10:29:53.308Z,0.45
2023-01-15T10:32:32.479Z,0.43
2023-01-15T10:35:08.666Z,0.40
2023-01-15T10:37:45.808Z,0.60
2023-01-15T10:40:30.743Z,0.40
2023-01-15T10:43:29.026Z,0.55
2023-01-15T10:46:03.104Z,0.50
2023-01-15T10:48:37.411Z,0.68
2023-01-15T10:51:13.535Z,0.30
2023-01-15T10:53:48.096Z,0.30
2023-01-15T10:56:30.113Z,0.30
2023-01-15T10:59:18.157Z,0.30
2023-01-15T11:01:46.064Z,0.30
2023-01-15T11:04:13.821Z,0.40
2023-01-15T11:06:41.077Z,0.50
2023-01-15T11:09:17.911Z,0.80
2023-01-15T11:12:00.272Z,0.25
2023-01-15T11:14:52.286Z,0.30
2023-01-15T11:17:37.882Z,0.28
2023-01-15T11:20:17.659Z,0.20
2023-01-15T11:22:45.022Z,0.20
2023-01-15T11:25:11.932Z,0.20
2023-01-15T11:27:39.441Z,0.30
2023-01-15T11:30:07.962Z,0.20
2023-01-15T11:32:38.446Z,0.20
2023-01-15T11:35:08.384Z,0.20
2023-01-15T11:37:35.056Z,0.20
2023-01-15T11:40:09.650Z,0.30
2023-01-15T11:43:04.380Z,0.57
2023-01-15T11:45:49.764Z,0.30
2023-01-15T11:48:41.870Z,0.47
2023-01-15T11:51:10.970Z,0.30
2023-01-15T11:53:46.301Z,0.40
2023-01-15T11:56:18.639Z,0.40
2023-01-15T11:58:54.171Z,0.50
2023-01-15T12:01:29.547Z,0.30
2023-01-15T12:03:57.712Z,0.30
2023-01-15T12:06:26.915Z,0.40
2023-01-15T12:09:03.055Z,0.22
2023-01-15T12:12:04.055Z,0.38
2023-01-15T12:14:55.234Z,0.40
2023-01-15T12:17:56.544Z,0.47
2023-01-15T12:20:26.079Z,0.38
2023-01-15T12:23:14.558Z,0.30
2023-01-15T12:25:53.358Z,0.28
2023-01-15T12:28:24.549Z,0.40
2023-01-15T12:31:06.319Z,0.30
2023-01-15T12:33:43.333Z,0.40
2023-01-15T12:36:26.921Z,0.40
2023-01-15T12:39:00.028Z,0.30
2023-01-15T12:41:50.003Z,0.20
2023-01-15T12:44:39.405Z,0.20
2023-01-15T12:47:10.654Z,0.30
2023-01-15T12:49:43.268Z,0.22
2023-01-15T12:52:14.285Z,0.30
2023-01-15T12:54:49.500Z,0.30
2023-01-15T12:57:31.268Z,0.65
2023-01-15T13:00:04.768Z,0.22
2023-01-15T13:03:05.104Z,0.20
2023-01-15T13:05:52.562Z,0.30
2023-01-15T13:08:46.191Z,0.20
2023-01-15T13:11:13.252Z,0.35
2023-01-15T13:13:42.328Z,0.32
2023-01-15T13:16:18.082Z,0.50
2023-01-15T13:18:48.125Z,0.40
2023-01-15T13:21:18.023Z,0.20
2023-01-15T13:23:53.616Z,0.20
2023-01-15T13:27:01.411Z,0.32
2023-01-15T13:29:40.257Z,0.28
2023-01-15T13:32:21.104Z,0.28
2023-01-15T13:34:55.200Z,0.30
2023-01-15T13:37:40.819Z,0.30
2023-01-15T13:40:23.039Z,0.30
2023-01-15T13:42:51.158Z,0.32
2023-01-15T13:45:26.738Z,0.40
2023-01-15T13:47:57.574Z,0.40
2023-01-15T13:50:34.758Z,0.30
2023-01-15T13:53:21.556Z,0.35
2023-01-15T13:55:58.887Z,0.30
2023-01-15T13:58:30.811Z,0.20
2023-01-15T14:01:22.498Z,0.30
2023-01-15T14:03:58.271Z,0.30
2023-01-15T14:06:36.519Z,0.20
2023-01-15T14:09:05.200Z,0.30
2023-01-15T14:11:36.674Z,0.28
2023-01-15T14:14:31.394Z,0.30
2023-01-15T14:17:19.946Z,0.30
2023-01-15T14:20:10.584Z,0.32
2023-01-15T14:23:08.132Z,0.30
2023-01-15T14:25:52.948Z,0.20
2023-01-15T14:28:41.332Z,0.20
2023-01-15T14:31:39.837Z,0.20
2023-01-15T14:34:28.677Z,0.10
2023-01-15T14:37:00.736Z,0.20
2023-01-15T14:39:42.548Z,0.22
2023-01-15T14:42:44.231Z,0.20
2023-01-15T14:45:13.521Z,0.20
2023-01-15T14:47:57.210Z,0.20
2023-01-15T14:50:24.435Z,0.52
2023-01-15T14:52:53.689Z,0.30
2023-01-15T14:55:21.382Z,0.35
2023-01-15T14:58:33.836Z,0.20
2023-01-15T15:01:30.623Z,0.52
2023-01-15T15:03:59.181Z,0.40
2023-01-15T15:06:27.576Z,0.30
2023-01-15T15:09:02.101Z,0.40
2023-01-15T15:12:19.505Z,0.25
2023-01-15T15:14:52.914Z,0.30
2023-01-15T15:17:30.000Z,0.32
2023-01-15T15:20:07.190Z,0.40
2023-01-15T15:22:38.521Z,0.55
2023-01-15T15:25:10.795Z,0.50
2023-01-15T15:27:37.397Z,0.40
2023-01-15T15:30:07.989Z,0.30
2023-01-15T15:32:40.322Z,0.40
2023-01-15T15:35:24.933Z,0.40
2023-01-15T15:37:51.928Z,0.30
2023-01-15T15:40:20.770Z,0.30
2023-01-15T15:43:49.634Z,0.25
2023-01-15T15:46:49.321Z,0.50
2023-01-15T15:49:16.485Z,0.30
2023-01-15T15:51:50.380Z,0.40
2023-01-15T15:56:51.287Z,0.43
2023-01-15T15:59:28.920Z,0.40
2023-01-15T16:01:57.636Z,0.38
2023-01-15T16:04:24.555Z,0.40
2023-01-15T16:06:52.014Z,0.40
2023-01-15T16:09:24.006Z,0.30
2023-01-15T16:11:53.311Z,0.40
2023-01-15T16:14:21.282Z,0.60
2023-01-15T16:16:56.176Z,0.38
2023-01-15T16:19:25.609Z,0.20
2023-01-15T16:21:53.507Z,0.40
2023-01-15T16:24:28.506Z,0.50
2023-01-15T16:26:57.338Z,0.40
2023-01-15T16:29:27.145Z,0.47
2023-01-15T16:31:56.835Z,0.40
2023-01-15T16:34:27.459Z,0.40
2023-01-15T16:36:54.103Z,0.30
2023-01-15T16:39:39.664Z,0.50
2023-01-15T16:42:25.720Z,0.30
2023-01-15T16:44:55.331Z,0.30
2023-01-15T16:47:28.716Z,0.45
2023-01-15T16:50:24.428Z,0.38
2023-01-15T16:52:55.851Z,0.50
2023-01-15T16:55:34.676Z,0.47
2023-01-15T16:58:13.573Z,0.28
2023-01-15T17:00:43.419Z,1.17
2023-01-15T17:03:15.806Z,1.98
2023-01-15T17:05:43.745Z,0.93
2023-01-15T17:08:22.359Z,1.15
2023-01-15T17:10:56.673Z,0.80
2023-01-15T17:13:33.200Z,1.25
2023-01-15T17:16:14.635Z,0.88
2023-01-15T17:18:41.302Z,0.57
2023-01-15T17:21:15.638Z,0.50
2023-01-15T17:23:43.074Z,0.70
2023-01-15T17:26:19.707Z,0.85
2023-01-15T17:28:47.110Z,1.83
2023-01-15T17:31:25.585Z,1.10
2023-01-15T17:33:52.974Z,0.40
2023-01-15T17:36:20.421Z,1.33
2023-01-15T17:38:47.338Z,1.80
2023-01-15T17:41:15.334Z,2.95
2023-01-15T17:43:42.266Z,1.10
2023-01-15T17:46:09.172Z,1.15
2023-01-15T17:48:36.023Z,0.82
2023-01-15T17:51:04.739Z,0.40
2023-01-15T17:53:32.529Z,0.50
2023-01-15T17:56:18.245Z,0.50
2023-01-15T17:59:03.380Z,0.40
2023-01-15T18:01:52.511Z,0.38
2023-01-15T18:04:52.318Z,0.47
2023-01-15T18:07:22.602Z,0.50
2023-01-15T18:09:50.420Z,0.47
2023-01-15T18:12:17.087Z,0.40
2023-01-15T18:14:43.598Z,0.60
2023-01-15T18:17:11.549Z,0.60
2023-01-15T18:19:38.160Z,0.30
2023-01-15T18:22:04.792Z,0.60
2023-01-15T18:24:31.892Z,0.43
2023-01-15T18:26:58.457Z,0.50
2023-01-15T18:29:26.221Z,0.70
2023-01-15T18:31:52.920Z,0.52
2023-01-15T18:34:19.553Z,0.60
2023-01-15T18:36:46.190Z,0.57
2023-01-15T18:39:13.646Z,0.50
2023-01-15T18:41:41.088Z,0.70
2023-01-15T18:44:29.232Z,0.50
2023-01-15T18:46:58.577Z,0.40
2023-01-15T18:49:25.142Z,0.40
2023-01-15T18:52:11.962Z,0.50
2023-01-15T18:54:38.829Z,0.43
2023-01-15T18:57:05.626Z,0.45
2023-01-15T18:59:32.266Z,0.55
2023-01-15T19:01:59.115Z,0.30
2023-01-15T19:04:26.306Z,0.43
2023-01-15T19:06:53.212Z,0.40
2023-01-15T19:09:23.948Z,0.68
2023-01-15T19:11:51.988Z,0.40
2023-01-15T19:14:38.285Z,0.35
2023-01-15T19:17:23.694Z,0.47
2023-01-15T19:19:50.218Z,0.40
2023-01-15T19:22:35.748Z,0.43
2023-01-15T19:25:02.356Z,0.60
2023-01-15T19:27:28.962Z,0.47
2023-01-15T19:29:55.572Z,0.52
2023-01-15T19:32:22.083Z,0.52
2023-01-15T19:34:48.933Z,0.47
2023-01-15T19:37:15.560Z,0.90
2023-01-15T19:39:42.163Z,1.85
2023-01-15T19:42:36.560Z,1.58
2023-01-15T19:45:21.879Z,1.40
2023-01-15T19:48:07.552Z,1.65
2023-01-15T19:50:39.922Z,1.20
2023-01-15T19:53:06.535Z,0.43
2023-01-15T19:55:33.767Z,0.70
2023-01-15T19:58:11.315Z,0.77
2023-01-15T20:00:39.340Z,0.73
2023-01-15T20:03:09.808Z,1.20
2023-01-15T20:05:37.347Z,0.70
2023-01-15T20:08:04.107Z,1.42
2023-01-15T20:10:32.742Z,1.00
2023-01-15T20:13:17.923Z,1.00
2023-01-15T20:15:47.929Z,1.42
2023-01-15T20:18:14.685Z,1.02
2023-01-15T20:20:41.233Z,1.20
2023-01-15T20:23:07.833Z,0.98
2023-01-15T20:25:35.397Z,0.80
2023-01-15T20:28:02.007Z,0.85
2023-01-15T20:30:29.117Z,0.60
2023-01-15T20:32:58.903Z,0.50
2023-01-15T20:35:31.201Z,0.40
2023-01-15T20:37:58.027Z,0.40
2023-01-15T20:40:25.729Z,0.50
2023-01-15T20:43:12.004Z,0.50
2023-01-15T20:45:39.312Z,0.40
2023-01-15T20:48:12.583Z,0.45
2023-01-15T20:51:00.865Z,0.50
2023-01-15T20:53:34.653Z,0.30
2023-01-15T20:56:02.675Z,0.35
2023-01-15T20:58:29.343Z,0.43
2023-01-15T21:01:03.341Z,0.45
2023-01-15T21:03:29.912Z,0.30
2023-01-15T21:05:57.842Z,0.30
2023-01-15T21:08:24.750Z,0.50
2023-01-15T21:10:52.782Z,0.40
2023-01-15T21:13:21.054Z,0.93
2023-01-15T21:15:58.180Z,0.65
2023-01-15T21:18:26.886Z,0.30
2023-01-15T21:20:54.283Z,0.50
2023-01-15T21:23:21.315Z,0.38
2023-01-15T21:25:47.965Z,0.30
2023-01-15T21:28:15.000Z,0.40
2023-01-15T21:30:44.375Z,0.52
2023-01-15T21:33:11.397Z,0.50
2023-01-15T21:35:41.505Z,0.40
2023-01-15T21:38:09.032Z,0.40
2023-01-15T21:40:39.003Z,0.70
2023-01-15T21:43:24.230Z,0.40
2023-01-15T21:45:51.678Z,0.43
2023-01-15T21:48:18.925Z,0.45
2023-01-15T21:50:45.511Z,0.60
2023-01-15T21:53:12.107Z,0.65
2023-01-15T21:55:38.931Z,0.70
2023-01-15T21:58:05.588Z,1.13
2023-01-15T22:00:32.154Z,1.25
2023-01-15T22:02:58.756Z,0.75
2023-01-15T22:05:25.398Z,0.50
2023-01-15T22:07:52.040Z,0.70
2023-01-15T22:10:18.747Z,0.40
2023-01-15T22:12:45.442Z,0.52
2023-01-15T22:15:12.247Z,0.65
2023-01-15T22:17:39.002Z,0.50
2023-01-15T22:20:07.209Z,0.47
2023-01-15T22:22:36.395Z,0.60
2023-01-15T22:25:05.032Z,0.50
2023-01-15T22:27:34.453Z,0.55
2023-01-15T22:30:01.392Z,0.40
2023-01-15T22:32:28.066Z,0.40
2023-01-15T22:34:54.612Z,0.70
2023-01-15T22:37:21.145Z,0.40
2023-01-15T22:39:47.745Z,0.60
2023-01-15T22:42:27.973Z,0.52
2023-01-15T22:44:56.895Z,0.60
2023-01-15T22:47:23.627Z,0.50
2023-01-15T22:49:50.820Z,0.40
2023-01-15T22:52:17.638Z,0.40
2023-01-15T22:54:45.304Z,0.55
2023-01-15T22:57:13.362Z,0.40
2023-01-15T22:59:40.202Z,0.45
2023-01-15T23:02:06.832Z,0.40
2023-01-15T23:04:33.590Z,0.40
2023-01-15T23:07:00.450Z,0.50
2023-01-15T23:09:27.034Z,0.80
2023-01-15T23:11:53.617Z,0.43
2023-01-15T23:14:21.441Z,0.50
2023-01-15T23:16:48.538Z,0.50
2023-01-15T23:19:15.646Z,0.47
2023-01-15T23:21:42.590Z,0.70
2023-01-15T23:24:09.541Z,0.93
2023-01-15T23:26:36.298Z,0.65
2023-01-15T23:29:04.063Z,0.60
2023-01-15T23:31:30.734Z,0.73
2023-01-15T23:33:57.383Z,0.90
2023-01-15T23:36:24.408Z,0.57
2023-01-15T23:38:50.975Z,0.50
2023-01-15T23:41:40.339Z,0.50
2023-01-15T23:44:32.133Z,0.65
2023-01-15T23:46:58.835Z,0.60
2023-01-15T23:49:25.720Z,0.82
2023-01-15T23:51:52.387Z,0.80
2023-01-15T23:54:18.997Z,0.80
2023-01-15T23:56:46.304Z,1.27
2023-01-15T23:59:13.020Z,0.90
